sensor_id;sensor_type;location;lat;lon;timestamp;P1;durP1;ratioP1;P2;durP2;ratioP2
27889;SDS011;15238;49.082;9.102;2022-11-21T00:01:26;2.55;;;0.68;;
27889;SDS011;15238;49.082;9.102;2022-11-21T00:03:27;2.67;;;0.75;;
27889;SDS011;15238;49.082;9.102;2022-11-21T00:05:28;2.22;;;0.43;;
27889;SDS011;15238;49.082;9.102;2022-11-21T00:07:29;3.58;;;0.60;;
27889;SDS011;15238;49.082;9.102;2022-11-21T00:09:30;2.65;;;0.70;;
27889;SDS011;15238;49.082;9.102;2022-11-21T00:11:32;3.97;;;0.70;;
27889;SDS011;15238;49.082;9.102;2022-11-21T00:13:33;3.78;;;0.47;;
27889;SDS011;15238;49.082;9.102;2022-11-21T00:15:33;3.08;;;1.10;;
27889;SDS011;15238;49.082;9.102;2022-11-21T00:17:34;4.40;;;0.85;;
27889;SDS011;15238;49.082;9.102;2022-11-21T00:19:35;3.28;;;0.60;;
27889;SDS011;15238;49.082;9.102;2022-11-21T00:21:35;3.80;;;0.80;;
27889;SDS011;15238;49.082;9.102;2022-11-21T00:23:36;4.10;;;0.55;;
27889;SDS011;15238;49.082;9.102;2022-11-21T00:25:37;3.75;;;1.00;;
27889;SDS011;15238;49.082;9.102;2022-11-21T00:27:38;2.95;;;0.68;;
27889;SDS011;15238;49.082;9.102;2022-11-21T00:29:38;3.03;;;0.60;;
27889;SDS011;15238;49.082;9.102;2022-11-21T00:31:39;3.25;;;0.50;;
27889;SDS011;15238;49.082;9.102;2022-11-21T00:33:39;3.25;;;0.45;;
27889;SDS011;15238;49.082;9.102;2022-11-21T00:35:40;1.80;;;0.38;;
27889;SDS011;15238;49.082;9.102;2022-11-21T00:37:40;1.00;;;0.30;;
27889;SDS011;15238;49.082;9.102;2022-11-21T00:39:41;0.88;;;0.30;;
27889;SDS011;15238;49.082;9.102;2022-11-21T00:41:41;2.40;;;0.40;;
27889;SDS011;15238;49.082;9.102;2022-11-21T00:43:42;2.38;;;0.40;;
27889;SDS011;15238;49.082;9.102;2022-11-21T00:45:42;1.40;;;0.30;;
27889;SDS011;15238;49.082;9.102;2022-11-21T00:47:43;0.98;;;0.30;;
27889;SDS011;15238;49.082;9.102;2022-11-21T00:49:44;2.00;;;0.40;;
27889;SDS011;15238;49.082;9.102;2022-11-21T00:51:44;4.40;;;0.38;;
27889;SDS011;15238;49.082;9.102;2022-11-21T00:53:45;2.50;;;0.55;;
27889;SDS011;15238;49.082;9.102;2022-11-21T00:55:45;2.47;;;0.40;;
27889;SDS011;15238;49.082;9.102;2022-11-21T00:57:46;5.07;;;0.50;;
27889;SDS011;15238;49.082;9.102;2022-11-21T00:59:46;2.83;;;0.45;;
27889;SDS011;15238;49.082;9.102;2022-11-21T01:01:47;2.35;;;0.40;;
27889;SDS011;15238;49.082;9.102;2022-11-21T01:03:47;2.60;;;0.50;;
27889;SDS011;15238;49.082;9.102;2022-11-21T01:05:48;1.58;;;0.82;;
27889;SDS011;15238;49.082;9.102;2022-11-21T01:07:48;5.97;;;0.88;;
27889;SDS011;15238;49.082;9.102;2022-11-21T01:09:49;3.28;;;0.80;;
27889;SDS011;15238;49.082;9.102;2022-11-21T01:11:49;3.63;;;0.70;;
27889;SDS011;15238;49.082;9.102;2022-11-21T01:13:51;3.60;;;0.88;;
27889;SDS011;15238;49.082;9.102;2022-11-21T01:15:53;8.13;;;1.00;;
27889;SDS011;15238;49.082;9.102;2022-11-21T01:17:54;3.75;;;0.60;;
27889;SDS011;15238;49.082;9.102;2022-11-21T01:19:54;3.72;;;0.70;;
27889;SDS011;15238;49.082;9.102;2022-11-21T01:21:55;4.00;;;0.60;;
27889;SDS011;15238;49.082;9.102;2022-11-21T01:23:57;3.97;;;0.88;;
27889;SDS011;15238;49.082;9.102;2022-11-21T01:26:02;5.32;;;0.70;;
27889;SDS011;15238;49.082;9.102;2022-11-21T01:28:04;2.55;;;0.50;;
27889;SDS011;15238;49.082;9.102;2022-11-21T01:30:04;3.78;;;0.85;;
27889;SDS011;15238;49.082;9.102;2022-11-21T01:32:06;5.53;;;1.10;;
27889;SDS011;15238;49.082;9.102;2022-11-21T01:34:06;3.45;;;0.75;;
27889;SDS011;15238;49.082;9.102;2022-11-21T01:38:08;2.90;;;0.70;;
27889;SDS011;15238;49.082;9.102;2022-11-21T01:40:09;4.75;;;0.40;;
27889;SDS011;15238;49.082;9.102;2022-11-21T01:42:11;2.65;;;0.60;;
27889;SDS011;15238;49.082;9.102;2022-11-21T01:44:17;6.18;;;0.63;;
27889;SDS011;15238;49.082;9.102;2022-11-21T01:46:20;2.05;;;0.65;;
27889;SDS011;15238;49.082;9.102;2022-11-21T01:48:25;4.03;;;0.55;;
27889;SDS011;15238;49.082;9.102;2022-11-21T01:50:33;2.03;;;0.40;;
27889;SDS011;15238;49.082;9.102;2022-11-21T01:52:33;2.13;;;0.45;;
27889;SDS011;15238;49.082;9.102;2022-11-21T01:57:00;2.28;;;0.30;;
27889;SDS011;15238;49.082;9.102;2022-11-21T01:59:38;2.90;;;0.50;;
27889;SDS011;15238;49.082;9.102;2022-11-21T02:01:44;4.38;;;0.47;;
27889;SDS011;15238;49.082;9.102;2022-11-21T02:03:46;1.98;;;0.60;;
27889;SDS011;15238;49.082;9.102;2022-11-21T02:05:47;3.55;;;0.40;;
27889;SDS011;15238;49.082;9.102;2022-11-21T02:07:47;1.67;;;0.50;;
27889;SDS011;15238;49.082;9.102;2022-11-21T02:09:52;1.25;;;0.30;;
27889;SDS011;15238;49.082;9.102;2022-11-21T02:11:56;1.15;;;0.22;;
27889;SDS011;15238;49.082;9.102;2022-11-21T02:14:00;1.65;;;0.40;;
27889;SDS011;15238;49.082;9.102;2022-11-21T02:16:01;3.10;;;1.65;;
27889;SDS011;15238;49.082;9.102;2022-11-21T02:18:02;2.97;;;0.65;;
27889;SDS011;15238;49.082;9.102;2022-11-21T02:20:09;0.63;;;0.20;;
27889;SDS011;15238;49.082;9.102;2022-11-21T02:27:00;1.05;;;0.30;;
27889;SDS011;15238;49.082;9.102;2022-11-21T02:29:01;2.83;;;0.40;;
27889;SDS011;15238;49.082;9.102;2022-11-21T02:31:02;2.83;;;0.30;;
27889;SDS011;15238;49.082;9.102;2022-11-21T02:33:21;2.28;;;0.55;;
27889;SDS011;15238;49.082;9.102;2022-11-21T02:35:21;2.05;;;0.30;;
27889;SDS011;15238;49.082;9.102;2022-11-21T02:37:22;0.60;;;0.20;;
27889;SDS011;15238;49.082;9.102;2022-11-21T02:39:25;2.13;;;0.30;;
27889;SDS011;15238;49.082;9.102;2022-11-21T02:41:31;1.85;;;0.40;;
27889;SDS011;15238;49.082;9.102;2022-11-21T02:43:39;2.10;;;0.40;;
27889;SDS011;15238;49.082;9.102;2022-11-21T02:45:44;1.85;;;0.40;;
27889;SDS011;15238;49.082;9.102;2022-11-21T02:47:45;2.03;;;0.93;;
27889;SDS011;15238;49.082;9.102;2022-11-21T02:52:10;1.35;;;0.50;;
27889;SDS011;15238;49.082;9.102;2022-11-21T02:54:11;4.50;;;0.52;;
27889;SDS011;15238;49.082;9.102;2022-11-21T02:56:11;0.90;;;0.30;;
27889;SDS011;15238;49.082;9.102;2022-11-21T02:58:12;0.90;;;0.30;;
27889;SDS011;15238;49.082;9.102;2022-11-21T03:00:13;1.90;;;0.43;;
27889;SDS011;15238;49.082;9.102;2022-11-21T03:02:13;2.03;;;0.45;;
27889;SDS011;15238;49.082;9.102;2022-11-21T03:04:14;1.15;;;0.30;;
27889;SDS011;15238;49.082;9.102;2022-11-21T03:06:14;0.47;;;0.15;;
27889;SDS011;15238;49.082;9.102;2022-11-21T03:08:15;3.47;;;0.35;;
27889;SDS011;15238;49.082;9.102;2022-11-21T03:10:16;0.45;;;0.17;;
27889;SDS011;15238;49.082;9.102;2022-11-21T03:12:16;0.70;;;0.28;;
27889;SDS011;15238;49.082;9.102;2022-11-21T03:14:17;0.10;;;0.10;;
27889;SDS011;15238;49.082;9.102;2022-11-21T03:16:18;0.57;;;0.20;;
27889;SDS011;15238;49.082;9.102;2022-11-21T03:18:18;2.90;;;0.50;;
27889;SDS011;15238;49.082;9.102;2022-11-21T03:20:19;1.17;;;0.30;;
27889;SDS011;15238;49.082;9.102;2022-11-21T03:22:19;0.50;;;0.20;;
27889;SDS011;15238;49.082;9.102;2022-11-21T03:24:20;0.43;;;0.25;;
27889;SDS011;15238;49.082;9.102;2022-11-21T03:26:20;0.93;;;0.22;;
27889;SDS011;15238;49.082;9.102;2022-11-21T03:28:21;0.55;;;0.20;;
27889;SDS011;15238;49.082;9.102;2022-11-21T03:30:22;2.45;;;0.50;;
27889;SDS011;15238;49.082;9.102;2022-11-21T03:32:25;1.17;;;0.52;;
27889;SDS011;15238;49.082;9.102;2022-11-21T03:34:25;0.60;;;0.30;;
27889;SDS011;15238;49.082;9.102;2022-11-21T03:36:26;2.08;;;0.30;;
27889;SDS011;15238;49.082;9.102;2022-11-21T03:38:26;3.20;;;0.20;;
27889;SDS011;15238;49.082;9.102;2022-11-21T03:40:27;3.20;;;0.30;;
27889;SDS011;15238;49.082;9.102;2022-11-21T03:42:27;3.47;;;0.38;;
27889;SDS011;15238;49.082;9.102;2022-11-21T03:44:28;0.85;;;0.30;;
27889;SDS011;15238;49.082;9.102;2022-11-21T03:46:29;0.80;;;0.20;;
27889;SDS011;15238;49.082;9.102;2022-11-21T03:48:32;1.27;;;0.30;;
27889;SDS011;15238;49.082;9.102;2022-11-21T03:50:33;1.10;;;0.30;;
27889;SDS011;15238;49.082;9.102;2022-11-21T03:52:33;2.15;;;0.30;;
27889;SDS011;15238;49.082;9.102;2022-11-21T03:54:34;0.80;;;0.20;;
27889;SDS011;15238;49.082;9.102;2022-11-21T03:56:34;2.35;;;0.52;;
27889;SDS011;15238;49.082;9.102;2022-11-21T03:58:34;2.38;;;0.47;;
27889;SDS011;15238;49.082;9.102;2022-11-21T04:00:35;5.20;;;0.43;;
27889;SDS011;15238;49.082;9.102;2022-11-21T04:02:36;1.48;;;0.40;;
27889;SDS011;15238;49.082;9.102;2022-11-21T04:04:37;2.08;;;0.50;;
27889;SDS011;15238;49.082;9.102;2022-11-21T04:06:37;2.97;;;0.68;;
27889;SDS011;15238;49.082;9.102;2022-11-21T04:08:38;3.60;;;0.60;;
27889;SDS011;15238;49.082;9.102;2022-11-21T04:10:39;1.48;;;0.50;;
27889;SDS011;15238;49.082;9.102;2022-11-21T04:12:45;1.73;;;0.85;;
27889;SDS011;15238;49.082;9.102;2022-11-21T04:14:46;2.33;;;0.75;;
27889;SDS011;15238;49.082;9.102;2022-11-21T04:16:46;2.78;;;0.50;;
27889;SDS011;15238;49.082;9.102;2022-11-21T04:18:47;1.20;;;0.60;;
27889;SDS011;15238;49.082;9.102;2022-11-21T04:20:47;1.00;;;0.60;;
27889;SDS011;15238;49.082;9.102;2022-11-21T04:22:48;1.45;;;0.50;;
27889;SDS011;15238;49.082;9.102;2022-11-21T04:24:48;1.13;;;0.30;;
27889;SDS011;15238;49.082;9.102;2022-11-21T04:26:49;2.00;;;0.63;;
27889;SDS011;15238;49.082;9.102;2022-11-21T04:28:49;1.35;;;0.60;;
27889;SDS011;15238;49.082;9.102;2022-11-21T04:30:50;1.05;;;0.65;;
27889;SDS011;15238;49.082;9.102;2022-11-21T04:32:50;1.30;;;0.40;;
27889;SDS011;15238;49.082;9.102;2022-11-21T04:34:51;1.73;;;0.50;;
27889;SDS011;15238;49.082;9.102;2022-11-21T04:36:52;1.92;;;0.43;;
27889;SDS011;15238;49.082;9.102;2022-11-21T04:38:53;3.50;;;0.70;;
27889;SDS011;15238;49.082;9.102;2022-11-21T04:40:53;3.10;;;1.27;;
27889;SDS011;15238;49.082;9.102;2022-11-21T04:42:54;1.58;;;0.52;;
27889;SDS011;15238;49.082;9.102;2022-11-21T04:44:54;4.35;;;0.65;;
27889;SDS011;15238;49.082;9.102;2022-11-21T04:46:54;5.93;;;0.80;;
27889;SDS011;15238;49.082;9.102;2022-11-21T04:48:55;3.97;;;0.70;;
27889;SDS011;15238;49.082;9.102;2022-11-21T04:50:56;2.50;;;0.60;;
27889;SDS011;15238;49.082;9.102;2022-11-21T04:52:56;2.75;;;0.73;;
27889;SDS011;15238;49.082;9.102;2022-11-21T04:54:57;5.57;;;0.65;;
27889;SDS011;15238;49.082;9.102;2022-11-21T04:56:58;6.45;;;0.60;;
27889;SDS011;15238;49.082;9.102;2022-11-21T04:58:58;2.00;;;0.70;;
27889;SDS011;15238;49.082;9.102;2022-11-21T05:01:06;1.80;;;0.50;;
27889;SDS011;15238;49.082;9.102;2022-11-21T05:03:07;2.17;;;0.57;;
27889;SDS011;15238;49.082;9.102;2022-11-21T05:05:08;2.05;;;0.80;;
27889;SDS011;15238;49.082;9.102;2022-11-21T05:07:08;5.13;;;0.70;;
27889;SDS011;15238;49.082;9.102;2022-11-21T05:09:09;2.88;;;0.68;;
27889;SDS011;15238;49.082;9.102;2022-11-21T05:11:09;4.85;;;1.10;;
27889;SDS011;15238;49.082;9.102;2022-11-21T05:13:30;4.35;;;1.45;;
27889;SDS011;15238;49.082;9.102;2022-11-21T05:15:31;1.50;;;0.70;;
27889;SDS011;15238;49.082;9.102;2022-11-21T05:17:31;2.13;;;0.70;;
27889;SDS011;15238;49.082;9.102;2022-11-21T05:19:32;2.92;;;0.80;;
27889;SDS011;15238;49.082;9.102;2022-11-21T05:21:32;2.47;;;0.50;;
27889;SDS011;15238;49.082;9.102;2022-11-21T05:23:33;4.85;;;0.60;;
27889;SDS011;15238;49.082;9.102;2022-11-21T05:25:33;3.47;;;0.55;;
27889;SDS011;15238;49.082;9.102;2022-11-21T05:27:34;2.80;;;0.68;;
27889;SDS011;15238;49.082;9.102;2022-11-21T05:29:34;3.55;;;0.80;;
27889;SDS011;15238;49.082;9.102;2022-11-21T05:31:35;2.83;;;0.50;;
27889;SDS011;15238;49.082;9.102;2022-11-21T05:33:35;2.58;;;0.82;;
27889;SDS011;15238;49.082;9.102;2022-11-21T05:35:36;1.90;;;0.63;;
27889;SDS011;15238;49.082;9.102;2022-11-21T05:37:37;3.55;;;1.00;;
27889;SDS011;15238;49.082;9.102;2022-11-21T05:39:37;5.95;;;1.30;;
27889;SDS011;15238;49.082;9.102;2022-11-21T05:41:38;4.07;;;1.33;;
27889;SDS011;15238;49.082;9.102;2022-11-21T05:43:38;6.80;;;1.50;;
27889;SDS011;15238;49.082;9.102;2022-11-21T05:45:47;3.78;;;1.05;;
27889;SDS011;15238;49.082;9.102;2022-11-21T05:47:49;3.67;;;1.20;;
27889;SDS011;15238;49.082;9.102;2022-11-21T05:49:49;5.47;;;1.38;;
27889;SDS011;15238;49.082;9.102;2022-11-21T05:51:50;6.15;;;0.95;;
27889;SDS011;15238;49.082;9.102;2022-11-21T05:53:50;4.32;;;1.42;;
27889;SDS011;15238;49.082;9.102;2022-11-21T05:55:51;8.00;;;1.27;;
27889;SDS011;15238;49.082;9.102;2022-11-21T05:57:51;5.38;;;1.30;;
27889;SDS011;15238;49.082;9.102;2022-11-21T05:59:52;4.65;;;1.35;;
27889;SDS011;15238;49.082;9.102;2022-11-21T06:01:52;5.70;;;1.38;;
27889;SDS011;15238;49.082;9.102;2022-11-21T06:04:11;7.75;;;1.10;;
27889;SDS011;15238;49.082;9.102;2022-11-21T06:06:13;6.22;;;2.30;;
27889;SDS011;15238;49.082;9.102;2022-11-21T06:08:16;41.28;;;2.88;;
27889;SDS011;15238;49.082;9.102;2022-11-21T06:10:16;4.95;;;1.45;;
27889;SDS011;15238;49.082;9.102;2022-11-21T06:12:17;7.03;;;1.60;;
27889;SDS011;15238;49.082;9.102;2022-11-21T06:14:17;5.93;;;1.10;;
27889;SDS011;15238;49.082;9.102;2022-11-21T06:16:18;4.63;;;1.48;;
27889;SDS011;15238;49.082;9.102;2022-11-21T06:18:19;7.72;;;1.27;;
27889;SDS011;15238;49.082;9.102;2022-11-21T06:20:20;6.82;;;1.42;;
27889;SDS011;15238;49.082;9.102;2022-11-21T06:22:20;8.77;;;1.40;;
27889;SDS011;15238;49.082;9.102;2022-11-21T06:24:21;10.45;;;1.35;;
27889;SDS011;15238;49.082;9.102;2022-11-21T06:26:23;5.30;;;1.52;;
27889;SDS011;15238;49.082;9.102;2022-11-21T06:28:34;6.55;;;1.35;;
27889;SDS011;15238;49.082;9.102;2022-11-21T06:30:37;4.65;;;1.45;;
27889;SDS011;15238;49.082;9.102;2022-11-21T06:32:38;14.20;;;4.70;;
27889;SDS011;15238;49.082;9.102;2022-11-21T06:34:38;8.95;;;3.45;;
27889;SDS011;15238;49.082;9.102;2022-11-21T06:36:38;5.05;;;2.78;;
27889;SDS011;15238;49.082;9.102;2022-11-21T06:38:39;11.98;;;5.65;;
27889;SDS011;15238;49.082;9.102;2022-11-21T06:40:40;5.68;;;1.70;;
27889;SDS011;15238;49.082;9.102;2022-11-21T06:42:41;9.98;;;3.80;;
27889;SDS011;15238;49.082;9.102;2022-11-21T06:44:41;3.92;;;1.92;;
27889;SDS011;15238;49.082;9.102;2022-11-21T06:46:42;3.95;;;1.13;;
27889;SDS011;15238;49.082;9.102;2022-11-21T06:48:42;11.60;;;2.78;;
27889;SDS011;15238;49.082;9.102;2022-11-21T06:50:43;4.32;;;1.23;;
27889;SDS011;15238;49.082;9.102;2022-11-21T06:52:44;4.82;;;1.23;;
27889;SDS011;15238;49.082;9.102;2022-11-21T06:54:44;5.55;;;1.50;;
27889;SDS011;15238;49.082;9.102;2022-11-21T06:56:45;4.85;;;1.70;;
27889;SDS011;15238;49.082;9.102;2022-11-21T06:58:45;8.55;;;1.73;;
27889;SDS011;15238;49.082;9.102;2022-11-21T07:00:46;6.68;;;2.05;;
27889;SDS011;15238;49.082;9.102;2022-11-21T07:02:47;4.22;;;1.50;;
27889;SDS011;15238;49.082;9.102;2022-11-21T07:04:48;6.93;;;1.48;;
27889;SDS011;15238;49.082;9.102;2022-11-21T07:06:48;7.15;;;1.50;;
27889;SDS011;15238;49.082;9.102;2022-11-21T07:08:51;4.22;;;1.60;;
27889;SDS011;15238;49.082;9.102;2022-11-21T07:10:53;7.07;;;1.85;;
27889;SDS011;15238;49.082;9.102;2022-11-21T07:12:59;8.43;;;1.73;;
27889;SDS011;15238;49.082;9.102;2022-11-21T07:15:18;6.72;;;1.55;;
27889;SDS011;15238;49.082;9.102;2022-11-21T07:17:19;5.75;;;1.65;;
27889;SDS011;15238;49.082;9.102;2022-11-21T07:19:19;9.70;;;1.70;;
27889;SDS011;15238;49.082;9.102;2022-11-21T07:21:20;7.68;;;1.58;;
27889;SDS011;15238;49.082;9.102;2022-11-21T07:23:21;7.43;;;1.40;;
27889;SDS011;15238;49.082;9.102;2022-11-21T07:25:21;2.80;;;1.00;;
27889;SDS011;15238;49.082;9.102;2022-11-21T07:27:22;7.38;;;1.55;;
27889;SDS011;15238;49.082;9.102;2022-11-21T07:29:22;10.43;;;1.58;;
27889;SDS011;15238;49.082;9.102;2022-11-21T07:31:23;8.93;;;1.63;;
27889;SDS011;15238;49.082;9.102;2022-11-21T07:33:24;9.13;;;1.50;;
27889;SDS011;15238;49.082;9.102;2022-11-21T07:35:24;11.00;;;2.00;;
27889;SDS011;15238;49.082;9.102;2022-11-21T07:37:25;12.07;;;2.72;;
27889;SDS011;15238;49.082;9.102;2022-11-21T07:39:26;9.50;;;2.88;;
27889;SDS011;15238;49.082;9.102;2022-11-21T07:41:26;7.53;;;1.95;;
27889;SDS011;15238;49.082;9.102;2022-11-21T07:43:27;8.35;;;1.35;;
27889;SDS011;15238;49.082;9.102;2022-11-21T07:45:28;5.88;;;1.63;;
27889;SDS011;15238;49.082;9.102;2022-11-21T07:47:28;7.32;;;2.05;;
27889;SDS011;15238;49.082;9.102;2022-11-21T07:49:29;9.15;;;1.63;;
27889;SDS011;15238;49.082;9.102;2022-11-21T07:51:29;9.85;;;2.58;;
27889;SDS011;15238;49.082;9.102;2022-11-21T07:53:30;5.72;;;1.90;;
27889;SDS011;15238;49.082;9.102;2022-11-21T07:55:31;11.65;;;1.73;;
27889;SDS011;15238;49.082;9.102;2022-11-21T07:57:32;8.43;;;2.00;;
27889;SDS011;15238;49.082;9.102;2022-11-21T07:59:33;4.82;;;2.00;;
27889;SDS011;15238;49.082;9.102;2022-11-21T08:01:33;8.07;;;1.73;;
27889;SDS011;15238;49.082;9.102;2022-11-21T08:03:34;10.38;;;2.35;;
27889;SDS011;15238;49.082;9.102;2022-11-21T08:05:35;8.75;;;1.73;;
27889;SDS011;15238;49.082;9.102;2022-11-21T08:07:43;6.70;;;2.10;;
27889;SDS011;15238;49.082;9.102;2022-11-21T08:09:43;12.32;;;3.03;;
27889;SDS011;15238;49.082;9.102;2022-11-21T08:11:44;6.53;;;2.85;;
27889;SDS011;15238;49.082;9.102;2022-11-21T08:13:45;6.53;;;1.77;;
27889;SDS011;15238;49.082;9.102;2022-11-21T08:15:45;5.65;;;2.25;;
27889;SDS011;15238;49.082;9.102;2022-11-21T08:17:46;7.45;;;1.83;;
27889;SDS011;15238;49.082;9.102;2022-11-21T08:19:47;9.02;;;2.03;;
27889;SDS011;15238;49.082;9.102;2022-11-21T08:21:47;6.68;;;2.10;;
27889;SDS011;15238;49.082;9.102;2022-11-21T08:23:48;8.68;;;1.67;;
27889;SDS011;15238;49.082;9.102;2022-11-21T08:25:48;5.97;;;1.58;;
27889;SDS011;15238;49.082;9.102;2022-11-21T08:27:50;7.07;;;1.80;;
27889;SDS011;15238;49.082;9.102;2022-11-21T08:29:54;10.02;;;2.28;;
27889;SDS011;15238;49.082;9.102;2022-11-21T08:31:55;9.75;;;2.60;;
27889;SDS011;15238;49.082;9.102;2022-11-21T08:33:55;7.95;;;1.73;;
27889;SDS011;15238;49.082;9.102;2022-11-21T08:35:56;8.23;;;1.92;;
27889;SDS011;15238;49.082;9.102;2022-11-21T08:37:57;4.53;;;1.83;;
27889;SDS011;15238;49.082;9.102;2022-11-21T08:39:58;5.95;;;2.42;;
27889;SDS011;15238;49.082;9.102;2022-11-21T08:41:59;10.15;;;2.38;;
27889;SDS011;15238;49.082;9.102;2022-11-21T08:44:03;8.77;;;1.38;;
27889;SDS011;15238;49.082;9.102;2022-11-21T08:46:05;6.07;;;1.10;;
27889;SDS011;15238;49.082;9.102;2022-11-21T08:48:09;8.10;;;1.40;;
27889;SDS011;15238;49.082;9.102;2022-11-21T08:50:10;6.18;;;1.48;;
27889;SDS011;15238;49.082;9.102;2022-11-21T08:52:11;11.40;;;2.13;;
27889;SDS011;15238;49.082;9.102;2022-11-21T08:54:12;9.38;;;2.28;;
27889;SDS011;15238;49.082;9.102;2022-11-21T08:56:12;5.15;;;2.00;;
27889;SDS011;15238;49.082;9.102;2022-11-21T08:58:13;10.90;;;2.75;;
27889;SDS011;15238;49.082;9.102;2022-11-21T09:00:14;5.20;;;1.70;;
27889;SDS011;15238;49.082;9.102;2022-11-21T09:02:14;10.60;;;1.60;;
27889;SDS011;15238;49.082;9.102;2022-11-21T09:04:15;8.35;;;1.13;;
27889;SDS011;15238;49.082;9.102;2022-11-21T09:06:16;7.45;;;1.52;;
27889;SDS011;15238;49.082;9.102;2022-11-21T09:08:16;8.18;;;1.58;;
27889;SDS011;15238;49.082;9.102;2022-11-21T09:10:17;6.78;;;1.05;;
27889;SDS011;15238;49.082;9.102;2022-11-21T09:12:17;7.28;;;1.17;;
27889;SDS011;15238;49.082;9.102;2022-11-21T09:14:18;5.35;;;1.15;;
27889;SDS011;15238;49.082;9.102;2022-11-21T09:16:37;6.95;;;1.02;;
27889;SDS011;15238;49.082;9.102;2022-11-21T09:18:56;5.30;;;1.08;;
27889;SDS011;15238;49.082;9.102;2022-11-21T09:20:56;5.35;;;0.90;;
27889;SDS011;15238;49.082;9.102;2022-11-21T09:23:02;4.38;;;1.10;;
27889;SDS011;15238;49.082;9.102;2022-11-21T09:25:06;11.13;;;1.48;;
27889;SDS011;15238;49.082;9.102;2022-11-21T09:27:06;3.20;;;0.95;;
27889;SDS011;15238;49.082;9.102;2022-11-21T09:29:07;4.47;;;1.08;;
27889;SDS011;15238;49.082;9.102;2022-11-21T09:31:10;5.05;;;1.08;;
27889;SDS011;15238;49.082;9.102;2022-11-21T09:33:12;7.00;;;1.38;;
27889;SDS011;15238;49.082;9.102;2022-11-21T09:35:15;23.58;;;2.65;;
27889;SDS011;15238;49.082;9.102;2022-11-21T09:37:16;4.05;;;1.23;;
27889;SDS011;15238;49.082;9.102;2022-11-21T09:39:16;9.90;;;1.55;;
27889;SDS011;15238;49.082;9.102;2022-11-21T09:41:21;9.90;;;1.25;;
27889;SDS011;15238;49.082;9.102;2022-11-21T09:43:59;10.23;;;2.15;;
27889;SDS011;15238;49.082;9.102;2022-11-21T09:46:09;8.20;;;1.23;;
27889;SDS011;15238;49.082;9.102;2022-11-21T09:48:14;7.38;;;1.45;;
27889;SDS011;15238;49.082;9.102;2022-11-21T09:54:57;6.03;;;2.03;;
27889;SDS011;15238;49.082;9.102;2022-11-21T09:57:00;7.32;;;1.90;;
27889;SDS011;15238;49.082;9.102;2022-11-21T10:01:36;7.25;;;1.40;;
27889;SDS011;15238;49.082;9.102;2022-11-21T10:03:41;9.43;;;1.35;;
27889;SDS011;15238;49.082;9.102;2022-11-21T10:05:47;14.32;;;3.42;;
27889;SDS011;15238;49.082;9.102;2022-11-21T10:07:59;7.22;;;1.23;;
27889;SDS011;15238;49.082;9.102;2022-11-21T10:10:17;9.20;;;2.38;;
27889;SDS011;15238;49.082;9.102;2022-11-21T10:17:05;9.23;;;2.10;;
27889;SDS011;15238;49.082;9.102;2022-11-21T10:26:50;8.63;;;1.70;;
27889;SDS011;15238;49.082;9.102;2022-11-21T10:31:14;5.32;;;1.10;;
27889;SDS011;15238;49.082;9.102;2022-11-21T10:33:25;5.00;;;1.17;;
27889;SDS011;15238;49.082;9.102;2022-11-21T10:37:39;6.85;;;3.47;;
27889;SDS011;15238;49.082;9.102;2022-11-21T10:39:47;11.80;;;4.22;;
27889;SDS011;15238;49.082;9.102;2022-11-21T10:41:52;6.90;;;2.22;;
27889;SDS011;15238;49.082;9.102;2022-11-21T10:46:26;4.32;;;0.88;;
27889;SDS011;15238;49.082;9.102;2022-11-21T10:48:27;2.85;;;1.10;;
27889;SDS011;15238;49.082;9.102;2022-11-21T10:52:47;3.97;;;1.30;;
27889;SDS011;15238;49.082;9.102;2022-11-21T10:57:06;5.03;;;0.85;;
27889;SDS011;15238;49.082;9.102;2022-11-21T10:59:20;4.55;;;0.75;;
27889;SDS011;15238;49.082;9.102;2022-11-21T11:03:33;6.05;;;1.67;;
27889;SDS011;15238;49.082;9.102;2022-11-21T11:05:37;8.38;;;1.23;;
27889;SDS011;15238;49.082;9.102;2022-11-21T11:07:38;4.13;;;1.27;;
27889;SDS011;15238;49.082;9.102;2022-11-21T11:09:39;2.50;;;0.80;;
27889;SDS011;15238;49.082;9.102;2022-11-21T11:11:39;6.03;;;1.05;;
27889;SDS011;15238;49.082;9.102;2022-11-21T11:18:03;8.93;;;1.23;;
27889;SDS011;15238;49.082;9.102;2022-11-21T11:20:06;3.33;;;0.80;;
27889;SDS011;15238;49.082;9.102;2022-11-21T11:22:31;8.30;;;1.90;;
27889;SDS011;15238;49.082;9.102;2022-11-21T11:24:32;7.53;;;1.77;;
27889;SDS011;15238;49.082;9.102;2022-11-21T11:26:32;8.52;;;1.00;;
27889;SDS011;15238;49.082;9.102;2022-11-21T11:28:35;5.03;;;1.05;;
27889;SDS011;15238;49.082;9.102;2022-11-21T11:30:35;2.50;;;0.70;;
27889;SDS011;15238;49.082;9.102;2022-11-21T11:32:38;6.20;;;1.45;;
27889;SDS011;15238;49.082;9.102;2022-11-21T11:34:41;3.75;;;0.90;;
27889;SDS011;15238;49.082;9.102;2022-11-21T11:36:54;6.88;;;1.65;;
27889;SDS011;15238;49.082;9.102;2022-11-21T11:39:03;6.55;;;1.15;;
27889;SDS011;15238;49.082;9.102;2022-11-21T11:41:35;6.50;;;1.33;;
27889;SDS011;15238;49.082;9.102;2022-11-21T11:44:15;7.03;;;1.48;;
27889;SDS011;15238;49.082;9.102;2022-11-21T11:46:54;8.43;;;1.55;;
27889;SDS011;15238;49.082;9.102;2022-11-21T11:51:54;4.35;;;0.80;;
27889;SDS011;15238;49.082;9.102;2022-11-21T11:54:00;5.38;;;0.88;;
27889;SDS011;15238;49.082;9.102;2022-11-21T11:56:09;3.85;;;1.00;;
27889;SDS011;15238;49.082;9.102;2022-11-21T11:58:22;7.05;;;1.02;;
27889;SDS011;15238;49.082;9.102;2022-11-21T12:03:02;6.40;;;1.15;;
27889;SDS011;15238;49.082;9.102;2022-11-21T12:05:10;3.92;;;0.88;;
27889;SDS011;15238;49.082;9.102;2022-11-21T12:11:31;6.15;;;0.93;;
27889;SDS011;15238;49.082;9.102;2022-11-21T12:14:12;5.45;;;0.95;;
27889;SDS011;15238;49.082;9.102;2022-11-21T12:16:39;6.88;;;0.70;;
27889;SDS011;15238;49.082;9.102;2022-11-21T12:18:48;6.38;;;1.00;;
27889;SDS011;15238;49.082;9.102;2022-11-21T12:21:12;3.97;;;0.85;;
27889;SDS011;15238;49.082;9.102;2022-11-21T12:23:17;5.65;;;1.08;;
27889;SDS011;15238;49.082;9.102;2022-11-21T12:25:39;5.18;;;1.20;;
27889;SDS011;15238;49.082;9.102;2022-11-21T12:27:46;2.83;;;0.98;;
27889;SDS011;15238;49.082;9.102;2022-11-21T12:36:28;4.40;;;1.05;;
27889;SDS011;15238;49.082;9.102;2022-11-21T12:41:06;4.47;;;1.40;;
27889;SDS011;15238;49.082;9.102;2022-11-21T12:43:49;3.78;;;1.13;;
27889;SDS011;15238;49.082;9.102;2022-11-21T12:53:59;9.23;;;1.15;;
27889;SDS011;15238;49.082;9.102;2022-11-21T12:58:39;6.68;;;1.10;;
27889;SDS011;15238;49.082;9.102;2022-11-21T13:00:51;5.55;;;0.98;;
27889;SDS011;15238;49.082;9.102;2022-11-21T13:03:22;3.95;;;1.00;;
27889;SDS011;15238;49.082;9.102;2022-11-21T13:05:49;6.03;;;1.40;;
27889;SDS011;15238;49.082;9.102;2022-11-21T13:07:54;5.70;;;1.00;;
27889;SDS011;15238;49.082;9.102;2022-11-21T13:10:10;8.13;;;1.52;;
27889;SDS011;15238;49.082;9.102;2022-11-21T13:14:51;4.28;;;1.00;;
27889;SDS011;15238;49.082;9.102;2022-11-21T13:21:48;6.38;;;1.45;;
27889;SDS011;15238;49.082;9.102;2022-11-21T13:23:49;7.53;;;1.27;;
27889;SDS011;15238;49.082;9.102;2022-11-21T13:25:50;5.60;;;1.50;;
27889;SDS011;15238;49.082;9.102;2022-11-21T13:27:51;3.22;;;0.90;;
27889;SDS011;15238;49.082;9.102;2022-11-21T13:34:43;7.57;;;1.10;;
27889;SDS011;15238;49.082;9.102;2022-11-21T13:36:43;10.65;;;2.25;;
27889;SDS011;15238;49.082;9.102;2022-11-21T13:40:51;6.47;;;1.23;;
27889;SDS011;15238;49.082;9.102;2022-11-21T13:43:24;10.77;;;1.83;;
27889;SDS011;15238;49.082;9.102;2022-11-21T13:45:39;7.10;;;1.33;;
27889;SDS011;15238;49.082;9.102;2022-11-21T13:47:55;10.07;;;1.45;;
27889;SDS011;15238;49.082;9.102;2022-11-21T13:54:56;5.03;;;1.42;;
27889;SDS011;15238;49.082;9.102;2022-11-21T13:57:04;5.05;;;1.38;;
27889;SDS011;15238;49.082;9.102;2022-11-21T13:59:48;6.88;;;1.35;;
27889;SDS011;15238;49.082;9.102;2022-11-21T14:02:10;4.82;;;0.90;;
27889;SDS011;15238;49.082;9.102;2022-11-21T14:04:37;4.60;;;0.90;;